Brownton, West Virginia
Current Conditions -  °F | °C
As of 9:53 PM on Wednesday 26 Nov 2014 (Local Time) from KCKB Reporting Station
Light Rain Light Rain  
Wind Chill: 34°   Ceiling: 500
Heat Index: 34°   Visibility: 5mi
Dew Point: 32°   Wind: 3mph
Humidity: 92%   Direction: 260°W
Pressure: 30.01"   Gusts: NA
Location:  39.22°N, 80.15°W
Report Text: KCKB 270253Z 26003KT 5SM -RA BR BKN005 OVC018 01/00 A3001 RMK AO2 RAE33B47SNB33E47 SLP166 P0001 60003 I3000 T00110000 51003
Loading
Personal Weather Stations






























Interactive Weather Map New forecast layout! Learn more

10-Day Weather Forecast

Advertisements
Track Severe Weather on mobile